Auk-Alfa, Netherlands

7:57 AM CEST on September 18, 2014 (GMT +0200)
Ekofisk | Change Station
CLOSE
Current Station
Airport
Location: Ekofisk,
Elevation: 10 ft
Nearby Weather Stations

Elev 10 ft 56.55 °N, 3.25 °E | Updated 37 minutes ago

Clear
Clear
59 °F
Feels Like 59 °F
N
23
Wind Variable Wind from ENE

Today
High -- | Low -- °F
--% Chance of Precip.
Yesterday
High -- | Low -- °F
Precip. -- in
7:28 AM 8:02 PM
Waning Crescent, 30% visible
Pressure 30.04 in
Visibility -9999.0 miles
Clouds
Dew Point 57 °F
Humidity 94%
Rainfall 0.00 in
Snow Depth Not available.
UV Not available.
Pollen Not available.
Air Quality Not available.
Flu Activity Not available.
METAR ENEK 180520Z 07020KT CAVOK 15/14 Q1017 W16/S4

More Conditions Fewer Conditions

Pressure 30.04 in
Visibility -9999.0 miles
Clouds
Dew Point 57 °F
Humidity 94%
Rainfall 0.00 in
Snow Depth Not available.
UV Not available.
Pollen Not available.
Air Quality Not available.
Flu Activity Not available.
METAR ENEK 180520Z 07020KT CAVOK 15/14 Q1017 W16/S4

More Conditions Fewer Conditions

10-Day Weather Forecast

Almanac

Astronomy

Sep. 18, 2014 Rise Set
Actual Time 7:28 AM CEST 8:02 PM CEST
Civil Twilight 6:50 AM CEST 8:39 PM CEST
Nautical Twilight 6:05 AM CEST 9:25 PM CEST
Astronomical Twilight 5:15 AM CEST 10:13 PM CEST
Moon 1:21 AM CEST 5:24 PM CEST
Length of Visible Light 13h 49m
Length of Day
12h 33m
Tomorrow will be 4m 41s shorter.
Waning Crescent, 30% of the Moon is Illuminated
Today
Waning Crescent
Sep 24
New
Oct 1
First Quarter
Oct 8
Full
Oct 15
Last Quarter

Yesterday's Extremes

Country Highs Country Lows

Community

WunderPhotos

Upload Photos

1,754,292 photos uploaded!

Nearby

Snow Depth

Not available.

Earthquake Activity

City Distance Mag. Time & Date
No recent earthquake activity has been reported nearby.
Minimum magnitude displayed is 2.5.

Coastal Water Temperatures

Place Temperature
No Stations Reporting

Nearby Weather Stations